sensor_id;sensor_type;location;lat;lon;timestamp;temperature;humidity
48515;DHT22;34309;47.260;2.796;2023-02-21T00:01:48;15.80;22.50
48515;DHT22;34309;47.260;2.796;2023-02-21T00:04:39;15.80;22.50
48515;DHT22;34309;47.260;2.796;2023-02-21T00:07:31;15.80;22.60
48515;DHT22;34309;47.260;2.796;2023-02-21T00:10:22;15.80;22.50
48515;DHT22;34309;47.260;2.796;2023-02-21T00:13:13;15.80;22.50
48515;DHT22;34309;47.260;2.796;2023-02-21T00:16:04;15.80;22.50
48515;DHT22;34309;47.260;2.796;2023-02-21T00:18:57;15.80;22.50
48515;DHT22;34309;47.260;2.796;2023-02-21T00:21:47;15.80;22.50
48515;DHT22;34309;47.260;2.796;2023-02-21T00:24:38;15.80;22.50
48515;DHT22;34309;47.260;2.796;2023-02-21T00:27:29;15.80;22.50
48515;DHT22;34309;47.260;2.796;2023-02-21T00:30:20;15.80;22.50
48515;DHT22;34309;47.260;2.796;2023-02-21T00:33:11;15.80;22.50
48515;DHT22;34309;47.260;2.796;2023-02-21T00:36:04;15.80;22.50
48515;DHT22;34309;47.260;2.796;2023-02-21T00:38:55;15.80;22.50
48515;DHT22;34309;47.260;2.796;2023-02-21T00:41:46;15.80;22.50
48515;DHT22;34309;47.260;2.796;2023-02-21T00:44:37;15.70;22.50
48515;DHT22;34309;47.260;2.796;2023-02-21T00:47:28;15.70;22.50
48515;DHT22;34309;47.260;2.796;2023-02-21T00:50:19;15.70;22.40
48515;DHT22;34309;47.260;2.796;2023-02-21T00:53:12;15.70;22.50
48515;DHT22;34309;47.260;2.796;2023-02-21T00:56:03;15.60;22.60
48515;DHT22;34309;47.260;2.796;2023-02-21T00:58:55;15.70;22.50
48515;DHT22;34309;47.260;2.796;2023-02-21T01:01:46;15.70;22.60
48515;DHT22;34309;47.260;2.796;2023-02-21T01:04:36;15.70;22.50
48515;DHT22;34309;47.260;2.796;2023-02-21T01:07:27;15.70;22.40
48515;DHT22;34309;47.260;2.796;2023-02-21T01:10:20;15.60;22.50
48515;DHT22;34309;47.260;2.796;2023-02-21T01:13:11;15.60;22.60
48515;DHT22;34309;47.260;2.796;2023-02-21T01:16:02;15.60;22.40
48515;DHT22;34309;47.260;2.796;2023-02-21T01:18:52;15.60;22.40
48515;DHT22;34309;47.260;2.796;2023-02-21T01:21:43;15.60;22.40
48515;DHT22;34309;47.260;2.796;2023-02-21T01:24:34;15.60;22.40
48515;DHT22;34309;47.260;2.796;2023-02-21T01:27:21;15.60;22.40
48515;DHT22;34309;47.260;2.796;2023-02-21T01:30:12;15.60;22.50
48515;DHT22;34309;47.260;2.796;2023-02-21T01:33:04;15.60;22.40
48515;DHT22;34309;47.260;2.796;2023-02-21T01:35:55;15.60;22.60
48515;DHT22;34309;47.260;2.796;2023-02-21T01:38:47;15.60;22.60
48515;DHT22;34309;47.260;2.796;2023-02-21T01:41:38;15.60;22.60
48515;DHT22;34309;47.260;2.796;2023-02-21T01:44:36;15.60;22.60
48515;DHT22;34309;47.260;2.796;2023-02-21T01:47:27;15.60;22.50
48515;DHT22;34309;47.260;2.796;2023-02-21T01:50:21;15.60;22.60
48515;DHT22;34309;47.260;2.796;2023-02-21T01:53:12;15.60;22.60
48515;DHT22;34309;47.260;2.796;2023-02-21T01:56:04;15.50;22.50
48515;DHT22;34309;47.260;2.796;2023-02-21T01:58:59;15.50;22.50
48515;DHT22;34309;47.260;2.796;2023-02-21T02:01:55;15.50;22.50
48515;DHT22;34309;47.260;2.796;2023-02-21T02:04:48;15.50;22.60
48515;DHT22;34309;47.260;2.796;2023-02-21T02:07:36;15.50;22.40
48515;DHT22;34309;47.260;2.796;2023-02-21T02:10:27;15.50;22.40
48515;DHT22;34309;47.260;2.796;2023-02-21T02:13:40;15.50;22.50
48515;DHT22;34309;47.260;2.796;2023-02-21T02:16:27;15.50;22.30
48515;DHT22;34309;47.260;2.796;2023-02-21T02:19:26;15.50;22.30
48515;DHT22;34309;47.260;2.796;2023-02-21T02:22:30;15.50;22.40
48515;DHT22;34309;47.260;2.796;2023-02-21T02:31:40;15.50;22.30
48515;DHT22;34309;47.260;2.796;2023-02-21T02:34:35;15.50;22.30
48515;DHT22;34309;47.260;2.796;2023-02-21T02:37:17;15.50;22.50
48515;DHT22;34309;47.260;2.796;2023-02-21T02:39:58;15.50;22.40
48515;DHT22;34309;47.260;2.796;2023-02-21T02:42:39;15.40;22.30
48515;DHT22;34309;47.260;2.796;2023-02-21T02:45:18;15.40;22.40
48515;DHT22;34309;47.260;2.796;2023-02-21T02:48:00;15.40;22.30
48515;DHT22;34309;47.260;2.796;2023-02-21T02:50:38;15.40;22.30
48515;DHT22;34309;47.260;2.796;2023-02-21T02:53:16;15.40;22.30
48515;DHT22;34309;47.260;2.796;2023-02-21T02:55:53;15.40;22.30
48515;DHT22;34309;47.260;2.796;2023-02-21T02:58:31;15.40;22.30
48515;DHT22;34309;47.260;2.796;2023-02-21T03:01:26;15.40;22.30
48515;DHT22;34309;47.260;2.796;2023-02-21T03:04:24;15.40;22.30
48515;DHT22;34309;47.260;2.796;2023-02-21T03:07:08;15.40;22.30
48515;DHT22;34309;47.260;2.796;2023-02-21T03:09:46;15.40;22.30
48515;DHT22;34309;47.260;2.796;2023-02-21T03:12:28;15.30;22.20
48515;DHT22;34309;47.260;2.796;2023-02-21T03:15:08;15.30;22.30
48515;DHT22;34309;47.260;2.796;2023-02-21T03:17:47;15.30;22.20
48515;DHT22;34309;47.260;2.796;2023-02-21T03:20:24;15.30;22.20
48515;DHT22;34309;47.260;2.796;2023-02-21T03:23:02;15.30;22.30
48515;DHT22;34309;47.260;2.796;2023-02-21T03:25:38;15.30;22.20
48515;DHT22;34309;47.260;2.796;2023-02-21T03:28:13;15.30;22.40
48515;DHT22;34309;47.260;2.796;2023-02-21T03:30:49;15.30;22.20
48515;DHT22;34309;47.260;2.796;2023-02-21T03:33:19;15.30;22.40
48515;DHT22;34309;47.260;2.796;2023-02-21T03:35:53;15.30;22.60
48515;DHT22;34309;47.260;2.796;2023-02-21T03:38:28;15.30;22.20
48515;DHT22;34309;47.260;2.796;2023-02-21T03:41:02;15.30;22.50
48515;DHT22;34309;47.260;2.796;2023-02-21T03:43:36;15.30;22.20
48515;DHT22;34309;47.260;2.796;2023-02-21T03:46:09;15.30;22.30
48515;DHT22;34309;47.260;2.796;2023-02-21T03:48:43;15.30;22.40
48515;DHT22;34309;47.260;2.796;2023-02-21T03:51:17;15.30;22.30
48515;DHT22;34309;47.260;2.796;2023-02-21T03:53:52;15.30;22.40
48515;DHT22;34309;47.260;2.796;2023-02-21T03:56:25;15.30;22.50
48515;DHT22;34309;47.260;2.796;2023-02-21T03:59:01;15.30;22.30
48515;DHT22;34309;47.260;2.796;2023-02-21T04:01:34;15.30;22.30
48515;DHT22;34309;47.260;2.796;2023-02-21T04:04:08;15.20;22.20
48515;DHT22;34309;47.260;2.796;2023-02-21T04:06:42;15.20;22.30
48515;DHT22;34309;47.260;2.796;2023-02-21T04:09:17;15.20;22.10
48515;DHT22;34309;47.260;2.796;2023-02-21T04:11:51;15.20;22.10
48515;DHT22;34309;47.260;2.796;2023-02-21T04:14:25;15.20;22.30
48515;DHT22;34309;47.260;2.796;2023-02-21T04:16:59;15.20;22.10
48515;DHT22;34309;47.260;2.796;2023-02-21T04:19:32;15.20;22.70
48515;DHT22;34309;47.260;2.796;2023-02-21T04:22:10;15.20;22.20
48515;DHT22;34309;47.260;2.796;2023-02-21T04:24:45;15.20;22.10
48515;DHT22;34309;47.260;2.796;2023-02-21T04:27:19;15.20;22.40
48515;DHT22;34309;47.260;2.796;2023-02-21T04:29:52;15.20;22.20
48515;DHT22;34309;47.260;2.796;2023-02-21T04:32:26;15.20;22.10
48515;DHT22;34309;47.260;2.796;2023-02-21T04:35:00;15.20;22.10
48515;DHT22;34309;47.260;2.796;2023-02-21T04:37:34;15.20;22.20
48515;DHT22;34309;47.260;2.796;2023-02-21T04:40:10;15.20;22.10
48515;DHT22;34309;47.260;2.796;2023-02-21T04:42:45;15.10;22.40
48515;DHT22;34309;47.260;2.796;2023-02-21T04:45:18;15.10;22.10
48515;DHT22;34309;47.260;2.796;2023-02-21T04:47:52;15.10;22.20
48515;DHT22;34309;47.260;2.796;2023-02-21T04:50:26;15.10;22.30
48515;DHT22;34309;47.260;2.796;2023-02-21T04:52:59;15.10;22.20
48515;DHT22;34309;47.260;2.796;2023-02-21T04:55:34;15.10;22.40
48515;DHT22;34309;47.260;2.796;2023-02-21T04:58:08;15.10;22.40
48515;DHT22;34309;47.260;2.796;2023-02-21T05:00:42;15.10;23.00
48515;DHT22;34309;47.260;2.796;2023-02-21T05:03:15;15.10;22.40
48515;DHT22;34309;47.260;2.796;2023-02-21T05:05:49;15.10;22.30
48515;DHT22;34309;47.260;2.796;2023-02-21T05:08:23;15.10;22.30
48515;DHT22;34309;47.260;2.796;2023-02-21T05:10:58;15.10;22.10
48515;DHT22;34309;47.260;2.796;2023-02-21T05:13:31;15.10;22.50
48515;DHT22;34309;47.260;2.796;2023-02-21T05:16:06;15.10;22.10
48515;DHT22;34309;47.260;2.796;2023-02-21T05:18:40;15.10;22.10
48515;DHT22;34309;47.260;2.796;2023-02-21T05:21:16;15.00;22.40
48515;DHT22;34309;47.260;2.796;2023-02-21T05:23:50;15.00;22.20
48515;DHT22;34309;47.260;2.796;2023-02-21T05:26:33;15.00;22.10
48515;DHT22;34309;47.260;2.796;2023-02-21T05:29:07;15.00;22.20
48515;DHT22;34309;47.260;2.796;2023-02-21T05:31:41;15.00;22.30
48515;DHT22;34309;47.260;2.796;2023-02-21T05:34:15;15.00;22.30
48515;DHT22;34309;47.260;2.796;2023-02-21T05:36:50;15.00;22.30
48515;DHT22;34309;47.260;2.796;2023-02-21T05:39:24;15.00;22.20
48515;DHT22;34309;47.260;2.796;2023-02-21T05:41:59;15.00;22.20
48515;DHT22;34309;47.260;2.796;2023-02-21T05:44:33;15.00;22.30
48515;DHT22;34309;47.260;2.796;2023-02-21T05:47:06;15.00;22.10
48515;DHT22;34309;47.260;2.796;2023-02-21T05:49:41;15.00;22.00
48515;DHT22;34309;47.260;2.796;2023-02-21T05:52:16;15.00;22.30
48515;DHT22;34309;47.260;2.796;2023-02-21T05:54:50;15.00;22.10
48515;DHT22;34309;47.260;2.796;2023-02-21T05:57:26;15.00;22.20
48515;DHT22;34309;47.260;2.796;2023-02-21T06:00:00;15.00;22.50
48515;DHT22;34309;47.260;2.796;2023-02-21T06:02:33;15.00;22.10
48515;DHT22;34309;47.260;2.796;2023-02-21T06:05:07;14.90;22.30
48515;DHT22;34309;47.260;2.796;2023-02-21T06:07:42;14.90;22.10
48515;DHT22;34309;47.260;2.796;2023-02-21T06:10:17;15.00;22.50
48515;DHT22;34309;47.260;2.796;2023-02-21T06:12:52;15.00;22.50
48515;DHT22;34309;47.260;2.796;2023-02-21T06:15:26;14.90;22.20
48515;DHT22;34309;47.260;2.796;2023-02-21T06:18:03;14.90;22.30
48515;DHT22;34309;47.260;2.796;2023-02-21T06:20:37;14.90;22.40
48515;DHT22;34309;47.260;2.796;2023-02-21T06:23:09;15.00;22.00
48515;DHT22;34309;47.260;2.796;2023-02-21T06:25:43;15.10;22.30
48515;DHT22;34309;47.260;2.796;2023-02-21T06:28:19;15.10;22.10
48515;DHT22;34309;47.260;2.796;2023-02-21T06:30:52;15.20;22.10
48515;DHT22;34309;47.260;2.796;2023-02-21T06:33:26;15.40;22.30
48515;DHT22;34309;47.260;2.796;2023-02-21T06:36:04;15.50;22.30
48515;DHT22;34309;47.260;2.796;2023-02-21T06:38:38;15.60;22.00
48515;DHT22;34309;47.260;2.796;2023-02-21T06:41:14;15.70;22.30
48515;DHT22;34309;47.260;2.796;2023-02-21T06:43:49;15.80;22.50
48515;DHT22;34309;47.260;2.796;2023-02-21T06:46:25;15.90;21.70
48515;DHT22;34309;47.260;2.796;2023-02-21T06:48:59;16.10;21.60
48515;DHT22;34309;47.260;2.796;2023-02-21T06:51:34;16.10;21.50
48515;DHT22;34309;47.260;2.796;2023-02-21T06:54:08;16.20;21.40
48515;DHT22;34309;47.260;2.796;2023-02-21T06:56:42;16.30;21.10
48515;DHT22;34309;47.260;2.796;2023-02-21T06:59:18;16.30;21.00
48515;DHT22;34309;47.260;2.796;2023-02-21T07:01:52;16.40;21.20
48515;DHT22;34309;47.260;2.796;2023-02-21T07:04:26;16.40;20.80
48515;DHT22;34309;47.260;2.796;2023-02-21T07:07:00;16.40;21.10
48515;DHT22;34309;47.260;2.796;2023-02-21T07:09:28;16.40;20.80
48515;DHT22;34309;47.260;2.796;2023-02-21T07:12:02;16.40;21.00
48515;DHT22;34309;47.260;2.796;2023-02-21T07:14:37;16.40;21.10
48515;DHT22;34309;47.260;2.796;2023-02-21T07:17:11;16.40;21.10
48515;DHT22;34309;47.260;2.796;2023-02-21T07:19:45;16.40;21.00
48515;DHT22;34309;47.260;2.796;2023-02-21T07:22:18;16.40;20.90
48515;DHT22;34309;47.260;2.796;2023-02-21T07:24:57;16.40;20.90
48515;DHT22;34309;47.260;2.796;2023-02-21T07:27:30;16.40;20.80
48515;DHT22;34309;47.260;2.796;2023-02-21T07:30:07;16.30;20.90
48515;DHT22;34309;47.260;2.796;2023-02-21T07:32:41;16.30;20.90
48515;DHT22;34309;47.260;2.796;2023-02-21T07:35:15;16.30;21.00
48515;DHT22;34309;47.260;2.796;2023-02-21T07:37:48;16.30;21.20
48515;DHT22;34309;47.260;2.796;2023-02-21T07:40:25;16.20;21.10
48515;DHT22;34309;47.260;2.796;2023-02-21T07:42:58;16.20;21.20
48515;DHT22;34309;47.260;2.796;2023-02-21T07:45:34;16.20;21.30
48515;DHT22;34309;47.260;2.796;2023-02-21T07:48:08;16.20;21.20
48515;DHT22;34309;47.260;2.796;2023-02-21T07:50:45;16.20;21.20
48515;DHT22;34309;47.260;2.796;2023-02-21T07:53:19;16.20;21.50
48515;DHT22;34309;47.260;2.796;2023-02-21T07:55:53;16.10;21.50
48515;DHT22;34309;47.260;2.796;2023-02-21T07:58:26;16.10;21.50
48515;DHT22;34309;47.260;2.796;2023-02-21T08:01:02;16.10;21.30
48515;DHT22;34309;47.260;2.796;2023-02-21T08:03:36;16.10;21.30
48515;DHT22;34309;47.260;2.796;2023-02-21T08:06:11;16.10;21.60
48515;DHT22;34309;47.260;2.796;2023-02-21T08:08:40;16.00;21.20
48515;DHT22;34309;47.260;2.796;2023-02-21T08:11:14;16.10;21.60
48515;DHT22;34309;47.260;2.796;2023-02-21T08:13:48;16.00;21.50
48515;DHT22;34309;47.260;2.796;2023-02-21T08:16:18;16.00;22.20
48515;DHT22;34309;47.260;2.796;2023-02-21T08:18:51;16.00;21.50
48515;DHT22;34309;47.260;2.796;2023-02-21T08:21:25;16.00;21.50
48515;DHT22;34309;47.260;2.796;2023-02-21T08:23:59;15.90;21.50
48515;DHT22;34309;47.260;2.796;2023-02-21T08:26:27;15.90;21.50
48515;DHT22;34309;47.260;2.796;2023-02-21T08:29:01;15.90;21.70
48515;DHT22;34309;47.260;2.796;2023-02-21T08:31:38;15.90;21.70
48515;DHT22;34309;47.260;2.796;2023-02-21T08:34:12;15.90;21.80
48515;DHT22;34309;47.260;2.796;2023-02-21T08:36:46;15.90;21.90
48515;DHT22;34309;47.260;2.796;2023-02-21T08:39:20;15.90;21.70
48515;DHT22;34309;47.260;2.796;2023-02-21T08:41:53;15.90;22.00
48515;DHT22;34309;47.260;2.796;2023-02-21T08:44:28;15.80;21.90
48515;DHT22;34309;47.260;2.796;2023-02-21T08:47:03;15.80;21.90
48515;DHT22;34309;47.260;2.796;2023-02-21T08:49:36;15.80;21.90
48515;DHT22;34309;47.260;2.796;2023-02-21T08:52:12;15.80;21.80
48515;DHT22;34309;47.260;2.796;2023-02-21T08:54:47;15.80;22.20
48515;DHT22;34309;47.260;2.796;2023-02-21T08:57:21;15.80;21.80
48515;DHT22;34309;47.260;2.796;2023-02-21T08:59:54;15.80;21.90
48515;DHT22;34309;47.260;2.796;2023-02-21T09:02:29;15.80;22.00
48515;DHT22;34309;47.260;2.796;2023-02-21T09:05:04;15.80;22.10
48515;DHT22;34309;47.260;2.796;2023-02-21T09:07:38;15.80;21.90
48515;DHT22;34309;47.260;2.796;2023-02-21T09:10:12;15.80;21.90
48515;DHT22;34309;47.260;2.796;2023-02-21T09:12:46;15.80;21.90
48515;DHT22;34309;47.260;2.796;2023-02-21T09:15:19;15.80;22.10
48515;DHT22;34309;47.260;2.796;2023-02-21T09:17:55;15.80;22.00
48515;DHT22;34309;47.260;2.796;2023-02-21T09:20:28;15.80;22.20
48515;DHT22;34309;47.260;2.796;2023-02-21T09:23:02;15.60;22.20
48515;DHT22;34309;47.260;2.796;2023-02-21T09:25:36;15.70;22.20
48515;DHT22;34309;47.260;2.796;2023-02-21T09:28:10;15.70;22.00
48515;DHT22;34309;47.260;2.796;2023-02-21T09:30:44;15.70;22.00
48515;DHT22;34309;47.260;2.796;2023-02-21T09:33:19;15.70;22.30
48515;DHT22;34309;47.260;2.796;2023-02-21T09:35:53;15.80;22.20
48515;DHT22;34309;47.260;2.796;2023-02-21T09:38:26;15.70;22.30
48515;DHT22;34309;47.260;2.796;2023-02-21T09:41:04;15.70;22.20
48515;DHT22;34309;47.260;2.796;2023-02-21T09:43:45;15.70;22.40
48515;DHT22;34309;47.260;2.796;2023-02-21T09:46:27;15.70;22.40
48515;DHT22;34309;47.260;2.796;2023-02-21T09:49:06;15.70;22.50
48515;DHT22;34309;47.260;2.796;2023-02-21T09:51:45;15.70;22.50
48515;DHT22;34309;47.260;2.796;2023-02-21T09:54:25;15.60;22.40
48515;DHT22;34309;47.260;2.796;2023-02-21T09:57:03;15.70;22.40
48515;DHT22;34309;47.260;2.796;2023-02-21T09:59:37;15.60;22.40
48515;DHT22;34309;47.260;2.796;2023-02-21T10:02:28;15.60;22.40
48515;DHT22;34309;47.260;2.796;2023-02-21T10:05:18;15.60;22.40
48515;DHT22;34309;47.260;2.796;2023-02-21T10:07:58;15.60;22.40
48515;DHT22;34309;47.260;2.796;2023-02-21T10:10:38;15.60;22.40
48515;DHT22;34309;47.260;2.796;2023-02-21T10:13:25;15.60;22.40
48515;DHT22;34309;47.260;2.796;2023-02-21T10:16:07;15.60;22.40
48515;DHT22;34309;47.260;2.796;2023-02-21T10:19:00;15.60;22.40
48515;DHT22;34309;47.260;2.796;2023-02-21T10:21:40;15.50;22.40
48515;DHT22;34309;47.260;2.796;2023-02-21T10:24:17;15.50;22.30
48515;DHT22;34309;47.260;2.796;2023-02-21T10:26:54;15.50;22.30
48515;DHT22;34309;47.260;2.796;2023-02-21T10:29:38;15.50;22.60
48515;DHT22;34309;47.260;2.796;2023-02-21T10:32:13;15.50;22.60
48515;DHT22;34309;47.260;2.796;2023-02-21T10:34:47;15.50;22.50
48515;DHT22;34309;47.260;2.796;2023-02-21T10:37:31;15.50;22.50
48515;DHT22;34309;47.260;2.796;2023-02-21T10:40:21;15.50;22.40
48515;DHT22;34309;47.260;2.796;2023-02-21T10:43:05;15.50;22.30
48515;DHT22;34309;47.260;2.796;2023-02-21T10:45:41;15.60;22.40
48515;DHT22;34309;47.260;2.796;2023-02-21T10:48:18;15.50;22.40
48515;DHT22;34309;47.260;2.796;2023-02-21T10:51:04;15.50;22.30
48515;DHT22;34309;47.260;2.796;2023-02-21T10:53:41;15.50;22.40
48515;DHT22;34309;47.260;2.796;2023-02-21T10:56:21;15.50;22.40
48515;DHT22;34309;47.260;2.796;2023-02-21T10:58:58;15.50;22.30
48515;DHT22;34309;47.260;2.796;2023-02-21T11:01:40;15.50;22.70
48515;DHT22;34309;47.260;2.796;2023-02-21T11:04:27;15.60;22.60
48515;DHT22;34309;47.260;2.796;2023-02-21T11:07:05;15.50;22.50
48515;DHT22;34309;47.260;2.796;2023-02-21T11:09:42;15.60;22.60
48515;DHT22;34309;47.260;2.796;2023-02-21T11:12:20;15.60;22.50
48515;DHT22;34309;47.260;2.796;2023-02-21T11:15:17;15.60;22.50
48515;DHT22;34309;47.260;2.796;2023-02-21T11:18:01;15.60;22.40
48515;DHT22;34309;47.260;2.796;2023-02-21T11:20:35;15.60;22.50
48515;DHT22;34309;47.260;2.796;2023-02-21T11:23:26;15.60;22.60
48515;DHT22;34309;47.260;2.796;2023-02-21T11:26:07;15.60;22.70
48515;DHT22;34309;47.260;2.796;2023-02-21T11:28:44;15.60;22.80
48515;DHT22;34309;47.260;2.796;2023-02-21T11:31:25;15.50;22.70
48515;DHT22;34309;47.260;2.796;2023-02-21T11:34:01;15.60;22.60
48515;DHT22;34309;47.260;2.796;2023-02-21T11:36:37;15.60;22.60
48515;DHT22;34309;47.260;2.796;2023-02-21T11:39:15;15.60;22.70
48515;DHT22;34309;47.260;2.796;2023-02-21T11:41:53;15.60;22.80
48515;DHT22;34309;47.260;2.796;2023-02-21T11:44:30;15.50;22.70
48515;DHT22;34309;47.260;2.796;2023-02-21T11:47:13;15.50;22.70
48515;DHT22;34309;47.260;2.796;2023-02-21T11:49:52;15.50;22.70
48515;DHT22;34309;47.260;2.796;2023-02-21T11:52:31;15.50;22.70
48515;DHT22;34309;47.260;2.796;2023-02-21T11:55:12;15.60;22.80
48515;DHT22;34309;47.260;2.796;2023-02-21T11:57:53;15.60;22.70
48515;DHT22;34309;47.260;2.796;2023-02-21T12:00:35;15.60;22.80
48515;DHT22;34309;47.260;2.796;2023-02-21T12:03:35;15.60;23.40
48515;DHT22;34309;47.260;2.796;2023-02-21T12:06:17;15.60;22.80
48515;DHT22;34309;47.260;2.796;2023-02-21T12:08:57;15.60;22.90
48515;DHT22;34309;47.260;2.796;2023-02-21T12:11:48;15.60;23.30
48515;DHT22;34309;47.260;2.796;2023-02-21T12:14:39;15.60;22.70
48515;DHT22;34309;47.260;2.796;2023-02-21T12:17:23;15.50;22.70
48515;DHT22;34309;47.260;2.796;2023-02-21T12:20:21;15.60;22.80
48515;DHT22;34309;47.260;2.796;2023-02-21T12:23:07;15.50;22.90
48515;DHT22;34309;47.260;2.796;2023-02-21T12:25:55;15.60;22.90
48515;DHT22;34309;47.260;2.796;2023-02-21T12:28:49;15.60;22.90
48515;DHT22;34309;47.260;2.796;2023-02-21T12:31:35;15.60;22.80
48515;DHT22;34309;47.260;2.796;2023-02-21T12:34:21;15.60;22.90
48515;DHT22;34309;47.260;2.796;2023-02-21T12:40:12;15.60;22.70
48515;DHT22;34309;47.260;2.796;2023-02-21T12:42:58;15.60;23.00
48515;DHT22;34309;47.260;2.796;2023-02-21T12:45:47;15.60;23.00
48515;DHT22;34309;47.260;2.796;2023-02-21T12:48:33;15.60;22.90
48515;DHT22;34309;47.260;2.796;2023-02-21T12:51:11;15.60;22.80
48515;DHT22;34309;47.260;2.796;2023-02-21T12:53:50;15.60;22.70
48515;DHT22;34309;47.260;2.796;2023-02-21T12:56:30;15.60;23.40
48515;DHT22;34309;47.260;2.796;2023-02-21T12:59:12;15.60;23.00
48515;DHT22;34309;47.260;2.796;2023-02-21T13:01:48;15.60;22.90
48515;DHT22;34309;47.260;2.796;2023-02-21T13:04:33;15.60;22.80
48515;DHT22;34309;47.260;2.796;2023-02-21T13:07:13;15.60;22.90
48515;DHT22;34309;47.260;2.796;2023-02-21T13:10:02;15.60;23.30
48515;DHT22;34309;47.260;2.796;2023-02-21T13:12:41;15.60;23.00
48515;DHT22;34309;47.260;2.796;2023-02-21T13:15:20;15.60;23.00
48515;DHT22;34309;47.260;2.796;2023-02-21T13:17:58;15.60;23.20
48515;DHT22;34309;47.260;2.796;2023-02-21T13:20:37;15.60;23.00
48515;DHT22;34309;47.260;2.796;2023-02-21T13:23:30;15.60;23.20
48515;DHT22;34309;47.260;2.796;2023-02-21T13:26:33;15.60;23.10
48515;DHT22;34309;47.260;2.796;2023-02-21T13:29:15;15.60;23.10
48515;DHT22;34309;47.260;2.796;2023-02-21T13:31:58;15.60;23.20
48515;DHT22;34309;47.260;2.796;2023-02-21T13:34:36;15.60;23.30
48515;DHT22;34309;47.260;2.796;2023-02-21T13:37:18;15.60;23.00
48515;DHT22;34309;47.260;2.796;2023-02-21T13:39:54;15.60;23.10
48515;DHT22;34309;47.260;2.796;2023-02-21T13:42:34;15.60;23.00
48515;DHT22;34309;47.260;2.796;2023-02-21T13:45:14;15.60;23.00
48515;DHT22;34309;47.260;2.796;2023-02-21T13:48:18;15.60;23.10
48515;DHT22;34309;47.260;2.796;2023-02-21T13:50:53;15.60;23.10
48515;DHT22;34309;47.260;2.796;2023-02-21T13:53:30;15.60;23.30
48515;DHT22;34309;47.260;2.796;2023-02-21T13:59:34;15.60;23.10
48515;DHT22;34309;47.260;2.796;2023-02-21T14:02:26;15.60;23.10
48515;DHT22;34309;47.260;2.796;2023-02-21T14:05:04;15.60;23.20
48515;DHT22;34309;47.260;2.796;2023-02-21T14:07:56;15.60;23.30
48515;DHT22;34309;47.260;2.796;2023-02-21T14:10:40;15.60;22.90
48515;DHT22;34309;47.260;2.796;2023-02-21T14:13:22;15.60;22.90
48515;DHT22;34309;47.260;2.796;2023-02-21T14:15:58;15.60;23.10
48515;DHT22;34309;47.260;2.796;2023-02-21T14:18:42;15.70;23.20
48515;DHT22;34309;47.260;2.796;2023-02-21T14:21:23;15.70;23.20
48515;DHT22;34309;47.260;2.796;2023-02-21T14:23:57;15.60;23.10
48515;DHT22;34309;47.260;2.796;2023-02-21T14:26:44;15.60;23.10
48515;DHT22;34309;47.260;2.796;2023-02-21T14:29:39;15.60;23.00
48515;DHT22;34309;47.260;2.796;2023-02-21T14:32:25;15.70;23.10
48515;DHT22;34309;47.260;2.796;2023-02-21T14:35:01;15.70;23.00
48515;DHT22;34309;47.260;2.796;2023-02-21T14:37:52;15.60;23.40
48515;DHT22;34309;47.260;2.796;2023-02-21T14:40:35;15.60;23.00
48515;DHT22;34309;47.260;2.796;2023-02-21T14:46:54;15.70;23.20
48515;DHT22;34309;47.260;2.796;2023-02-21T14:49:48;15.70;23.10
48515;DHT22;34309;47.260;2.796;2023-02-21T14:52:50;15.70;23.10
48515;DHT22;34309;47.260;2.796;2023-02-21T14:55:54;15.70;23.10
48515;DHT22;34309;47.260;2.796;2023-02-21T14:58:55;15.70;23.30
48515;DHT22;34309;47.260;2.796;2023-02-21T15:01:48;15.70;23.10
48515;DHT22;34309;47.260;2.796;2023-02-21T15:04:33;15.70;23.20
48515;DHT22;34309;47.260;2.796;2023-02-21T15:07:18;15.70;23.30
48515;DHT22;34309;47.260;2.796;2023-02-21T15:10:10;15.70;23.20
48515;DHT22;34309;47.260;2.796;2023-02-21T15:12:46;15.70;23.20
48515;DHT22;34309;47.260;2.796;2023-02-21T15:15:26;15.70;23.40
48515;DHT22;34309;47.260;2.796;2023-02-21T15:18:03;15.70;23.30
48515;DHT22;34309;47.260;2.796;2023-02-21T15:20:39;15.80;23.30
48515;DHT22;34309;47.260;2.796;2023-02-21T15:23:14;15.70;23.30
48515;DHT22;34309;47.260;2.796;2023-02-21T15:25:53;15.70;23.20
48515;DHT22;34309;47.260;2.796;2023-02-21T15:28:29;15.70;23.30
48515;DHT22;34309;47.260;2.796;2023-02-21T15:31:07;15.70;23.20
48515;DHT22;34309;47.260;2.796;2023-02-21T15:33:42;15.70;23.20
48515;DHT22;34309;47.260;2.796;2023-02-21T15:36:18;15.80;23.20
48515;DHT22;34309;47.260;2.796;2023-02-21T15:39:02;15.80;23.30
48515;DHT22;34309;47.260;2.796;2023-02-21T15:41:40;15.70;23.40
48515;DHT22;34309;47.260;2.796;2023-02-21T15:44:21;15.70;23.20
48515;DHT22;34309;47.260;2.796;2023-02-21T15:46:54;15.80;23.90
48515;DHT22;34309;47.260;2.796;2023-02-21T15:49:31;15.80;23.30
48515;DHT22;34309;47.260;2.796;2023-02-21T15:52:26;15.80;23.30
48515;DHT22;34309;47.260;2.796;2023-02-21T15:55:20;15.80;23.20
48515;DHT22;34309;47.260;2.796;2023-02-21T15:58:01;15.80;23.30
48515;DHT22;34309;47.260;2.796;2023-02-21T16:00:36;15.80;23.30
48515;DHT22;34309;47.260;2.796;2023-02-21T16:03:30;15.80;23.30
48515;DHT22;34309;47.260;2.796;2023-02-21T16:06:21;15.80;23.30
48515;DHT22;34309;47.260;2.796;2023-02-21T16:08:58;15.80;23.30
48515;DHT22;34309;47.260;2.796;2023-02-21T16:11:45;15.80;23.20
48515;DHT22;34309;47.260;2.796;2023-02-21T16:14:24;15.80;23.40
48515;DHT22;34309;47.260;2.796;2023-02-21T16:17:07;15.80;23.30
48515;DHT22;34309;47.260;2.796;2023-02-21T16:19:48;15.80;23.40
48515;DHT22;34309;47.260;2.796;2023-02-21T16:22:30;15.80;23.20
48515;DHT22;34309;47.260;2.796;2023-02-21T16:25:07;15.80;23.20
48515;DHT22;34309;47.260;2.796;2023-02-21T16:27:47;15.80;23.30
48515;DHT22;34309;47.260;2.796;2023-02-21T16:30:23;15.80;23.20
48515;DHT22;34309;47.260;2.796;2023-02-21T16:32:59;15.80;23.20
48515;DHT22;34309;47.260;2.796;2023-02-21T16:35:34;15.80;23.30
48515;DHT22;34309;47.260;2.796;2023-02-21T16:38:12;15.80;23.10
48515;DHT22;34309;47.260;2.796;2023-02-21T16:40:47;15.80;23.10
48515;DHT22;34309;47.260;2.796;2023-02-21T16:43:24;15.80;23.20
48515;DHT22;34309;47.260;2.796;2023-02-21T16:45:58;15.80;23.10
48515;DHT22;34309;47.260;2.796;2023-02-21T16:48:32;15.80;23.20
48515;DHT22;34309;47.260;2.796;2023-02-21T16:51:10;15.80;23.20
48515;DHT22;34309;47.260;2.796;2023-02-21T16:53:46;15.80;23.40
48515;DHT22;34309;47.260;2.796;2023-02-21T16:56:20;15.90;23.20
48515;DHT22;34309;47.260;2.796;2023-02-21T16:58:54;15.90;23.10
48515;DHT22;34309;47.260;2.796;2023-02-21T17:01:30;15.80;23.20
48515;DHT22;34309;47.260;2.796;2023-02-21T17:04:07;15.80;23.10
48515;DHT22;34309;47.260;2.796;2023-02-21T17:06:46;15.80;23.00
48515;DHT22;34309;47.260;2.796;2023-02-21T17:09:23;15.80;23.00